Time;durP1;ratioP1;P1;durP2;ratioP2;P2;SDS_P1;SDS_P2;PMS_P1;PMS_P2;Temp;Humidity;BMP_temperature;BMP_pressure;BME280_temperature;BME280_humidity;BME280_pressure;Samples;Min_cycle;Max_cycle;Signal;HPM_P1;HPM_P2
2022/08/30 00:01:04;;;;;;;0.40;0.40;;;16.60;99.90;;;;;;5096305;27;20063;-80
2022/08/30 00:03:37;;;;;;;0.40;0.40;;;16.50;99.90;;;;;;5072509;27;20055;-80
2022/08/30 00:06:05;;;;;;;0.50;0.50;;;16.50;99.90;;;;;;5088233;27;20039;-79
2022/08/30 00:08:32;;;;;;;0.40;0.40;;;16.50;99.90;;;;;;5087956;27;20050;-79
2022/08/30 00:10:58;;;;;;;0.40;0.40;;;16.50;99.90;;;;;;5085365;27;20127;-80
2022/08/30 00:13:24;;;;;;;0.40;0.40;;;16.50;99.90;;;;;;5084686;27;20046;-80
2022/08/30 00:15:51;;;;;;;0.40;0.40;;;16.50;99.90;;;;;;5083258;27;20067;-79
2022/08/30 00:18:18;;;;;;;0.40;0.40;;;16.40;99.90;;;;;;5084088;27;20043;-79
2022/08/30 00:20:45;;;;;;;0.40;0.40;;;16.40;99.90;;;;;;5084506;27;20054;-79
2022/08/30 00:23:11;;;;;;;0.40;0.40;;;16.40;99.90;;;;;;5103847;27;20411;-79
2022/08/30 00:25:38;;;;;;;0.40;0.40;;;16.40;99.90;;;;;;5105138;27;20050;-80
2022/08/30 00:28:04;;;;;;;0.50;0.50;;;16.40;99.90;;;;;;5082398;27;20047;-79
2022/08/30 00:30:29;;;;;;;0.55;0.55;;;16.40;99.90;;;;;;5084813;27;20062;-79
2022/08/30 00:32:55;;;;;;;0.50;0.50;;;16.50;99.90;;;;;;5081875;28;20048;-79
2022/08/30 00:35:21;;;;;;;0.40;0.40;;;16.40;99.90;;;;;;5081666;28;20060;-79
2022/08/30 00:37:48;;;;;;;0.40;0.40;;;16.40;99.90;;;;;;5081280;28;20067;-79
2022/08/30 00:40:15;;;;;;;0.50;0.50;;;16.40;99.90;;;;;;5076658;28;20043;-79
2022/08/30 00:42:42;;;;;;;0.40;0.40;;;16.40;99.90;;;;;;5044405;28;20115;-79
2022/08/30 00:45:17;;;;;;;0.40;0.40;;;16.40;99.90;;;;;;5064474;28;20590;-79
2022/08/30 00:47:43;;;;;;;0.40;0.40;;;16.30;99.90;;;;;;5062124;28;20047;-79
2022/08/30 00:50:11;;;;;;;0.40;0.40;;;16.30;99.90;;;;;;5063184;28;20040;-79
2022/08/30 00:52:40;;;;;;;0.40;0.40;;;16.30;99.90;;;;;;5064436;28;20112;-79
2022/08/30 00:55:07;;;;;;;0.40;0.40;;;16.30;99.90;;;;;;5062980;28;20057;-79
2022/08/30 00:57:34;;;;;;;0.50;0.50;;;16.20;99.90;;;;;;5080195;28;20048;-79
2022/08/30 01:00:03;;;;;;;0.50;0.50;;;16.30;99.90;;;;;;5079868;28;20061;-79
2022/08/30 01:02:30;;;;;;;0.40;0.40;;;16.20;99.90;;;;;;5079352;28;20778;-79
2022/08/30 01:04:56;;;;;;;0.40;0.40;;;16.20;99.90;;;;;;5082529;28;20780;-79
2022/08/30 01:07:23;;;;;;;0.40;0.40;;;16.20;99.90;;;;;;5084189;28;20134;-79
2022/08/30 01:09:49;;;;;;;0.40;0.40;;;16.20;99.90;;;;;;5080213;28;20575;-79
2022/08/30 01:12:15;;;;;;;0.40;0.40;;;16.10;99.90;;;;;;5083075;28;20078;-79
2022/08/30 01:14:41;;;;;;;0.40;0.40;;;16.00;99.90;;;;;;5083287;28;20040;-79
2022/08/30 01:17:08;;;;;;;0.40;0.40;;;16.00;99.90;;;;;;5084474;28;20867;-80
2022/08/30 01:19:53;;;;;;;0.40;0.40;;;15.90;99.90;;;;;;5080252;28;20096;-79
2022/08/30 01:22:47;;;;;;;0.40;0.40;;;15.80;99.90;;;;;;5083034;28;20082;-79
2022/08/30 01:25:26;;;;;;;0.40;0.40;;;15.90;99.90;;;;;;5071167;28;20044;-79
2022/08/30 01:27:57;;;;;;;0.40;0.40;;;15.90;99.90;;;;;;5081189;28;20086;-79
2022/08/30 01:30:23;;;;;;;0.50;0.50;;;15.90;99.90;;;;;;5083664;28;20046;-79
2022/08/30 01:32:55;;;;;;;0.40;0.40;;;15.90;99.90;;;;;;5056934;28;20109;-79
2022/08/30 01:35:21;;;;;;;0.40;0.40;;;15.80;99.90;;;;;;5083700;28;20044;-79
2022/08/30 01:37:47;;;;;;;0.40;0.40;;;15.80;99.90;;;;;;5082984;28;20058;-79
2022/08/30 01:40:15;;;;;;;0.40;0.40;;;15.80;99.90;;;;;;5084916;28;20036;-79
2022/08/30 01:42:41;;;;;;;0.40;0.40;;;15.80;99.90;;;;;;5086332;28;20459;-79
2022/08/30 01:45:07;;;;;;;0.40;0.40;;;15.80;99.90;;;;;;5085673;28;20051;-79
2022/08/30 01:47:34;;;;;;;0.40;0.40;;;15.70;99.90;;;;;;5083478;28;20047;-79
2022/08/30 01:49:59;;;;;;;0.40;0.40;;;15.70;99.90;;;;;;5083817;28;20060;-79
2022/08/30 01:52:26;;;;;;;0.40;0.40;;;15.60;99.90;;;;;;5083768;28;20044;-79
2022/08/30 01:54:52;;;;;;;0.45;0.45;;;15.70;99.90;;;;;;5068072;28;20051;-79
2022/08/30 01:57:21;;;;;;;0.40;0.40;;;15.60;99.90;;;;;;5078168;28;20039;-79
2022/08/30 01:59:49;;;;;;;0.40;0.40;;;15.70;99.90;;;;;;5056905;28;20150;-79
2022/08/30 02:02:17;;;;;;;0.40;0.40;;;15.70;99.90;;;;;;5078023;28;20051;-79
2022/08/30 02:04:43;;;;;;;0.40;0.40;;;15.60;99.90;;;;;;5065145;28;20039;-79
2022/08/30 02:07:10;;;;;;;0.40;0.40;;;15.60;99.90;;;;;;5066186;28;20085;-79
2022/08/30 02:09:36;;;;;;;0.40;0.40;;;15.60;99.90;;;;;;5083640;28;20046;-79
2022/08/30 02:12:06;;;;;;;0.40;0.40;;;15.60;99.90;;;;;;5060421;28;20040;-79
2022/08/30 02:14:36;;;;;;;0.40;0.40;;;15.50;99.90;;;;;;5075278;28;20058;-79
2022/08/30 02:17:03;;;;;;;0.40;0.40;;;15.50;99.90;;;;;;5054501;28;20052;-79
2022/08/30 02:19:29;;;;;;;0.40;0.40;;;15.50;99.90;;;;;;5061885;28;20067;-79
2022/08/30 02:21:55;;;;;;;0.40;0.40;;;15.50;99.90;;;;;;5073924;28;20151;-79
2022/08/30 02:24:20;;;;;;;0.40;0.40;;;15.40;99.90;;;;;;5080121;28;20083;-79
2022/08/30 02:26:47;;;;;;;0.40;0.40;;;15.40;99.90;;;;;;5078938;28;20047;-79
2022/08/30 02:29:13;;;;;;;0.40;0.40;;;15.30;99.90;;;;;;5080755;28;20048;-79
2022/08/30 02:31:38;;;;;;;0.40;0.40;;;15.30;99.90;;;;;;5080897;28;20108;-80
2022/08/30 02:34:04;;;;;;;0.38;0.38;;;15.30;99.90;;;;;;5083165;28;20565;-80
2022/08/30 02:36:30;;;;;;;0.40;0.40;;;15.20;99.90;;;;;;5081893;28;20051;-79
2022/08/30 02:38:56;;;;;;;0.40;0.40;;;15.20;99.90;;;;;;5081243;28;20090;-79
2022/08/30 02:41:23;;;;;;;0.40;0.40;;;15.20;99.90;;;;;;5082570;28;20047;-80
2022/08/30 02:43:49;;;;;;;0.40;0.40;;;15.20;99.90;;;;;;5084045;28;20510;-80
2022/08/30 02:46:16;;;;;;;0.40;0.40;;;15.20;99.90;;;;;;5083115;28;20457;-80
2022/08/30 02:48:42;;;;;;;0.40;0.40;;;15.20;99.90;;;;;;5082698;28;20047;-79
2022/08/30 02:51:11;;;;;;;0.40;0.40;;;15.10;99.90;;;;;;5084703;28;20050;-79
2022/08/30 02:53:37;;;;;;;0.40;0.40;;;15.10;99.90;;;;;;5080812;28;20050;-79
2022/08/30 02:56:03;;;;;;;0.47;0.47;;;15.10;99.90;;;;;;5083609;28;20554;-79
2022/08/30 02:58:29;;;;;;;0.50;0.50;;;15.00;99.90;;;;;;5082915;28;20098;-80
2022/08/30 03:00:55;;;;;;;0.40;0.40;;;15.00;99.90;;;;;;5064188;28;20051;-79
2022/08/30 03:03:21;;;;;;;0.40;0.40;;;15.00;99.90;;;;;;5065415;28;20047;-79
2022/08/30 03:05:47;;;;;;;0.40;0.40;;;14.90;99.90;;;;;;5079562;28;20930;-80
2022/08/30 03:08:13;;;;;;;0.40;0.40;;;14.90;99.90;;;;;;5067151;28;20134;-80
2022/08/30 03:10:39;;;;;;;0.40;0.40;;;14.90;99.90;;;;;;5081160;28;20068;-79
2022/08/30 03:13:06;;;;;;;0.40;0.40;;;14.90;99.90;;;;;;5084592;28;20050;-80
2022/08/30 03:15:34;;;;;;;0.40;0.40;;;14.90;99.90;;;;;;5078655;28;20059;-79
2022/08/30 03:18:00;;;;;;;0.50;0.50;;;14.80;99.90;;;;;;5080996;28;20047;-80
2022/08/30 03:20:26;;;;;;;0.40;0.40;;;14.80;99.90;;;;;;5080958;28;20452;-80
2022/08/30 03:22:52;;;;;;;0.40;0.40;;;14.70;99.90;;;;;;5081787;28;20073;-79
2022/08/30 03:25:19;;;;;;;0.40;0.40;;;14.70;99.90;;;;;;5082377;28;20047;-79
2022/08/30 03:27:46;;;;;;;0.40;0.40;;;14.70;99.90;;;;;;5080798;28;20081;-79
2022/08/30 03:30:13;;;;;;;0.40;0.40;;;14.60;99.90;;;;;;5082955;28;20058;-79
2022/08/30 03:32:39;;;;;;;0.40;0.40;;;14.60;99.90;;;;;;5081515;28;20052;-79
2022/08/30 03:35:05;;;;;;;0.40;0.40;;;14.60;99.90;;;;;;5082947;28;20043;-79
2022/08/30 03:37:32;;;;;;;0.40;0.40;;;14.60;99.90;;;;;;5079994;28;20090;-79
2022/08/30 03:39:57;;;;;;;0.40;0.40;;;14.60;99.90;;;;;;5064978;28;20036;-79
2022/08/30 03:42:23;;;;;;;0.40;0.40;;;14.50;99.90;;;;;;5082846;28;20109;-79
2022/08/30 03:44:49;;;;;;;0.40;0.40;;;14.50;99.90;;;;;;5062826;28;20059;-79
2022/08/30 03:47:15;;;;;;;0.40;0.40;;;14.40;99.90;;;;;;5080867;28;20051;-79
2022/08/30 03:49:41;;;;;;;0.50;0.50;;;14.40;99.90;;;;;;5079083;28;20057;-79
2022/08/30 03:52:06;;;;;;;0.40;0.40;;;14.30;99.90;;;;;;5082613;28;20044;-79
2022/08/30 03:54:32;;;;;;;0.40;0.40;;;14.30;99.90;;;;;;5081839;28;20047;-79
2022/08/30 03:56:58;;;;;;;0.40;0.40;;;14.30;99.90;;;;;;5082785;28;20036;-79
2022/08/30 03:59:24;;;;;;;0.40;0.40;;;14.20;99.90;;;;;;5081149;28;20296;-79
2022/08/30 04:01:51;;;;;;;0.40;0.40;;;14.20;99.90;;;;;;5080197;28;20050;-79
2022/08/30 04:04:17;;;;;;;0.40;0.40;;;14.20;99.90;;;;;;5080363;28;20048;-79
2022/08/30 04:06:42;;;;;;;0.40;0.40;;;14.10;99.90;;;;;;5081933;28;20044;-79
2022/08/30 04:09:08;;;;;;;0.40;0.40;;;14.20;99.90;;;;;;5075892;28;20055;-79
2022/08/30 04:11:34;;;;;;;0.47;0.47;;;14.10;99.90;;;;;;5081901;28;20088;-79
2022/08/30 04:14:00;;;;;;;0.40;0.40;;;14.10;99.90;;;;;;5078120;28;20535;-79
2022/08/30 04:16:26;;;;;;;0.40;0.40;;;14.10;99.90;;;;;;5079276;28;20080;-79
2022/08/30 04:18:52;;;;;;;0.40;0.40;;;14.00;99.90;;;;;;5061505;28;20528;-79
2022/08/30 04:21:18;;;;;;;0.45;0.45;;;14.00;99.90;;;;;;5063714;28;20167;-79
2022/08/30 04:23:45;;;;;;;0.40;0.40;;;14.00;99.90;;;;;;5079921;28;20048;-79
2022/08/30 04:26:10;;;;;;;0.40;0.40;;;13.90;99.90;;;;;;5063669;28;20056;-80
2022/08/30 04:28:36;;;;;;;0.40;0.40;;;13.80;99.90;;;;;;5076601;28;20055;-81
2022/08/30 04:31:10;;;;;;;0.40;0.40;;;13.70;99.90;;;;;;5079017;28;20045;-80
2022/08/30 04:33:36;;;;;;;0.50;0.50;;;13.70;99.90;;;;;;5068306;28;20055;-79
2022/08/30 04:36:04;;;;;;;0.40;0.40;;;13.70;99.90;;;;;;5080749;28;20071;-79
2022/08/30 04:38:31;;;;;;;0.40;0.40;;;13.70;99.90;;;;;;5082227;28;20073;-80
2022/08/30 04:40:57;;;;;;;0.40;0.40;;;13.70;99.90;;;;;;5081978;28;20036;-80
2022/08/30 04:43:25;;;;;;;0.40;0.40;;;13.70;99.90;;;;;;5084114;28;20055;-80
2022/08/30 04:45:52;;;;;;;0.40;0.40;;;13.80;99.90;;;;;;5082200;28;20055;-79
2022/08/30 04:48:18;;;;;;;0.40;0.40;;;13.80;99.90;;;;;;5084078;28;20503;-80
2022/08/30 04:50:45;;;;;;;0.50;0.50;;;13.80;99.90;;;;;;5079729;28;20062;-80
2022/08/30 04:53:12;;;;;;;0.40;0.40;;;13.80;99.90;;;;;;5081788;28;20048;-80
2022/08/30 04:55:42;;;;;;;0.40;0.40;;;13.70;99.90;;;;;;5063964;28;20384;-79
2022/08/30 04:58:09;;;;;;;0.40;0.40;;;13.70;99.90;;;;;;5083871;28;20047;-80
2022/08/30 05:00:36;;;;;;;0.40;0.40;;;13.80;99.90;;;;;;5081667;28;20063;-80
2022/08/30 05:03:03;;;;;;;0.40;0.40;;;13.80;99.90;;;;;;5079478;28;20043;-80
2022/08/30 05:05:41;;;;;;;0.40;0.40;;;13.80;99.90;;;;;;5083475;28;20064;-80
2022/08/30 05:08:12;;;;;;;0.40;0.40;;;13.80;99.90;;;;;;5084505;28;20043;-80
2022/08/30 05:10:40;;;;;;;0.40;0.40;;;13.80;99.90;;;;;;5065838;28;20043;-80
2022/08/30 05:13:06;;;;;;;0.43;0.43;;;13.80;99.90;;;;;;5082550;28;20441;-80
2022/08/30 05:15:32;;;;;;;0.50;0.50;;;13.90;99.90;;;;;;5083255;28;20053;-80
2022/08/30 05:17:58;;;;;;;0.40;0.40;;;14.30;99.90;;;;;;5084569;28;20032;-79
2022/08/30 05:20:24;;;;;;;0.40;0.40;;;14.70;99.90;;;;;;5084796;28;20973;-79
2022/08/30 05:22:50;;;;;;;0.40;0.40;;;15.60;99.90;;;;;;5083994;28;20063;-81
2022/08/30 05:25:21;;;;;;;0.40;0.40;;;16.40;99.90;;;;;;5082727;28;20047;-80
2022/08/30 05:27:47;;;;;;;0.40;0.40;;;17.10;99.90;;;;;;5084031;28;20094;-80
2022/08/30 05:30:14;;;;;;;0.40;0.40;;;17.60;99.90;;;;;;5082957;28;20122;-80
2022/08/30 05:32:41;;;;;;;0.40;0.40;;;18.00;99.90;;;;;;5084685;27;20404;-80
2022/08/30 05:35:09;;;;;;;0.40;0.40;;;18.30;99.90;;;;;;5068339;28;20129;-80
2022/08/30 05:37:36;;;;;;;0.40;0.40;;;18.80;99.90;;;;;;5084941;28;20052;-79
2022/08/30 05:40:03;;;;;;;0.32;0.32;;;19.30;99.90;;;;;;5083762;28;20623;-80
2022/08/30 05:42:29;;;;;;;0.40;0.40;;;19.30;99.90;;;;;;5080735;28;20079;-80
2022/08/30 05:44:54;;;;;;;0.40;0.40;;;19.80;99.90;;;;;;5084479;28;20130;-81
2022/08/30 05:47:21;;;;;;;0.40;0.40;;;19.70;99.90;;;;;;5061352;28;21050;-80
2022/08/30 05:49:47;;;;;;;0.40;0.40;;;20.40;99.90;;;;;;5040064;28;20091;-80
2022/08/30 05:52:16;;;;;;;0.50;0.50;;;20.30;99.90;;;;;;5049184;28;20043;-80
2022/08/30 05:54:43;;;;;;;0.38;0.38;;;18.60;99.90;;;;;;5043511;28;20059;-80
2022/08/30 05:57:09;;;;;;;0.38;0.38;;;18.20;99.90;;;;;;5027883;28;20062;-80
2022/08/30 05:59:35;;;;;;;0.40;0.40;;;17.60;99.90;;;;;;5049006;28;20046;-80
2022/08/30 06:02:00;;;;;;;0.40;0.40;;;17.50;99.90;;;;;;5043860;28;20043;-79
2022/08/30 06:04:26;;;;;;;0.40;0.40;;;17.30;99.90;;;;;;5066683;28;20047;-79
2022/08/30 06:06:52;;;;;;;0.40;0.40;;;17.40;99.90;;;;;;5025715;28;20492;-80
2022/08/30 06:09:18;;;;;;;0.40;0.40;;;17.00;99.90;;;;;;5053378;28;20041;-79
2022/08/30 06:11:45;;;;;;;0.40;0.40;;;17.20;99.90;;;;;;5053570;28;20130;-80
2022/08/30 06:14:11;;;;;;;0.40;0.40;;;17.20;99.90;;;;;;5057784;28;20046;-80
2022/08/30 06:16:38;;;;;;;0.40;0.40;;;17.40;99.90;;;;;;5076758;28;20093;-78
2022/08/30 06:19:05;;;;;;;0.40;0.40;;;17.50;99.90;;;;;;5069710;28;20078;-79
2022/08/30 06:21:34;;;;;;;0.40;0.40;;;17.70;99.90;;;;;;5061958;28;20108;-79
2022/08/30 06:24:02;;;;;;;0.40;0.40;;;17.60;99.90;;;;;;5064114;28;20786;-79
2022/08/30 06:26:28;;;;;;;0.40;0.40;;;17.80;99.90;;;;;;5041571;28;20112;-80
2022/08/30 06:28:55;;;;;;;0.40;0.40;;;17.70;99.90;;;;;;5080634;28;20150;-81
2022/08/30 06:31:22;;;;;;;0.40;0.40;;;17.70;99.90;;;;;;5056525;28;21215;-81
2022/08/30 06:33:48;;;;;;;0.40;0.40;;;17.60;99.90;;;;;;5027590;28;20112;-82
2022/08/30 06:36:18;;;;;;;0.40;0.40;;;17.80;99.90;;;;;;5033217;28;20082;-82
2022/08/30 06:38:44;;;;;;;0.40;0.40;;;17.60;99.90;;;;;;5056633;28;20048;-82
2022/08/30 06:41:17;;;;;;;0.40;0.40;;;17.90;99.90;;;;;;5053896;28;20071;-82
2022/08/30 06:43:43;;;;;;;0.40;0.40;;;18.00;99.90;;;;;;5056148;28;20080;-80
2022/08/30 06:46:12;;;;;;;0.40;0.40;;;18.10;99.90;;;;;;5058000;28;20160;-80
2022/08/30 06:48:38;;;;;;;0.40;0.40;;;18.20;99.90;;;;;;5057919;28;20057;-79
2022/08/30 06:51:04;;;;;;;0.40;0.40;;;18.30;99.90;;;;;;5077472;28;20039;-79
2022/08/30 06:53:30;;;;;;;0.40;0.40;;;18.20;99.90;;;;;;5069658;28;20088;-80
2022/08/30 06:56:01;;;;;;;0.40;0.40;;;18.30;99.90;;;;;;5035439;28;20308;-80
2022/08/30 06:58:46;;;;;;;0.40;0.40;;;18.40;99.90;;;;;;5051701;28;20777;-80
2022/08/30 07:01:14;;;;;;;0.40;0.40;;;18.70;99.90;;;;;;5046986;28;20036;-80
2022/08/30 07:03:40;;;;;;;0.40;0.40;;;18.70;99.90;;;;;;5047607;28;20169;-80
2022/08/30 07:06:06;;;;;;;0.40;0.40;;;18.70;99.90;;;;;;5051269;28;20073;-80
2022/08/30 07:08:32;;;;;;;0.40;0.40;;;18.90;99.90;;;;;;5069256;28;20071;-79
2022/08/30 07:10:58;;;;;;;0.40;0.40;;;19.00;99.90;;;;;;5050360;28;20589;-80
2022/08/30 07:13:24;;;;;;;0.40;0.40;;;18.90;99.90;;;;;;5054772;28;20060;-80
2022/08/30 07:15:50;;;;;;;0.40;0.40;;;18.90;99.90;;;;;;5052628;28;20100;-79
2022/08/30 07:18:49;;;;;;;0.40;0.40;;;19.00;99.90;;;;;;5032086;28;20054;-81
2022/08/30 07:21:14;;;;;;;0.40;0.40;;;19.00;99.90;;;;;;5041225;28;20503;-81
2022/08/30 07:23:41;;;;;;;0.40;0.40;;;19.40;99.90;;;;;;5067366;28;20055;-80
2022/08/30 07:26:10;;;;;;;0.40;0.40;;;18.90;99.90;;;;;;5048307;28;20130;-81
2022/08/30 07:28:38;;;;;;;0.40;0.40;;;19.20;99.90;;;;;;5067545;28;21124;-81
2022/08/30 07:31:04;;;;;;;0.40;0.40;;;19.20;99.90;;;;;;5067302;28;20047;-79
2022/08/30 07:33:31;;;;;;;0.40;0.40;;;19.20;99.90;;;;;;5078184;28;20693;-80
2022/08/30 07:35:58;;;;;;;0.40;0.40;;;19.30;99.90;;;;;;5061879;28;20047;-80
2022/08/30 07:38:24;;;;;;;0.30;0.30;;;19.30;99.90;;;;;;5061508;28;20121;-81
2022/08/30 07:40:50;;;;;;;0.40;0.40;;;19.30;99.90;;;;;;5059535;28;20490;-82
2022/08/30 07:43:16;;;;;;;0.40;0.40;;;18.90;99.90;;;;;;5047234;28;20039;-81
2022/08/30 07:45:42;;;;;;;0.40;0.40;;;19.40;99.90;;;;;;5055243;28;20054;-82
2022/08/30 07:48:10;;;;;;;0.30;0.30;;;19.30;99.90;;;;;;5045696;28;20055;-82
2022/08/30 07:50:36;;;;;;;0.40;0.40;;;19.00;99.90;;;;;;5078114;28;20052;-82
2022/08/30 07:53:03;;;;;;;0.40;0.40;;;19.20;99.90;;;;;;5062181;28;20043;-83
2022/08/30 07:55:29;;;;;;;0.40;0.40;;;18.90;99.90;;;;;;5063796;28;20154;-81
2022/08/30 07:57:55;;;;;;;0.40;0.40;;;19.40;99.90;;;;;;5060654;28;20046;-81
2022/08/30 08:00:20;;;;;;;0.40;0.40;;;19.40;99.90;;;;;;5065118;28;20722;-79
2022/08/30 08:02:46;;;;;;;0.40;0.40;;;19.60;99.90;;;;;;5081901;28;20054;-80
2022/08/30 08:05:13;;;;;;;0.40;0.40;;;19.50;99.90;;;;;;5055943;28;20555;-82
2022/08/30 08:07:38;;;;;;;0.40;0.40;;;20.00;99.90;;;;;;5074722;28;20266;-81
2022/08/30 08:10:05;;;;;;;0.40;0.40;;;19.90;99.90;;;;;;5052594;28;20374;-80
2022/08/30 08:12:31;;;;;;;0.40;0.40;;;20.10;99.90;;;;;;5063315;28;20118;-79
2022/08/30 08:14:57;;;;;;;0.40;0.40;;;20.20;99.90;;;;;;5068431;28;21430;-82
2022/08/30 08:17:22;;;;;;;0.40;0.40;;;20.10;99.90;;;;;;5068340;28;20051;-82
2022/08/30 08:19:48;;;;;;;0.40;0.40;;;20.30;99.90;;;;;;5067134;28;20051;-80
2022/08/30 08:22:14;;;;;;;0.30;0.30;;;20.50;99.90;;;;;;5067948;28;20415;-80
2022/08/30 08:24:40;;;;;;;0.40;0.40;;;20.70;99.90;;;;;;5064906;28;20056;-80
2022/08/30 08:27:06;;;;;;;0.30;0.30;;;20.50;99.90;;;;;;5064491;28;20051;-80
2022/08/30 08:29:32;;;;;;;0.30;0.30;;;20.50;99.90;;;;;;5062842;28;20845;-80
2022/08/30 08:31:59;;;;;;;0.38;0.38;;;20.60;99.90;;;;;;5064633;28;20131;-82
2022/08/30 08:34:26;;;;;;;0.40;0.40;;;20.80;99.90;;;;;;5065284;28;20052;-80
2022/08/30 08:36:51;;;;;;;0.30;0.30;;;20.90;99.90;;;;;;5085259;28;20051;-81
2022/08/30 08:39:17;;;;;;;0.30;0.30;;;20.90;99.90;;;;;;5048270;28;20040;-81
2022/08/30 08:41:59;;;;;;;0.30;0.30;;;21.00;99.90;;;;;;5067322;28;20508;-80
2022/08/30 08:44:30;;;;;;;0.30;0.30;;;20.90;99.90;;;;;;5050095;28;20104;-80
2022/08/30 08:47:14;;;;;;;0.30;0.30;;;20.90;99.90;;;;;;5032230;28;20124;-78
2022/08/30 08:49:43;;;;;;;0.30;0.30;;;20.70;99.90;;;;;;5062743;28;20054;-79
2022/08/30 08:55:07;;;;;;;0.40;0.40;;;21.20;99.90;;;;;;5076706;28;20059;-79
2022/08/30 08:57:36;;;;;;;0.30;0.30;;;21.50;99.90;;;;;;5079830;28;20044;-77
2022/08/30 09:00:09;;;;;;;0.30;0.30;;;21.50;99.90;;;;;;5061644;28;20074;-82
2022/08/30 09:02:47;;;;;;;0.30;0.30;;;21.70;99.90;;;;;;5074013;28;20058;-79
2022/08/30 09:05:17;;;;;;;0.30;0.30;;;21.70;99.90;;;;;;5067483;28;20048;-80
2022/08/30 09:07:49;;;;;;;0.40;0.40;;;21.90;99.90;;;;;;5067331;28;20047;-80
2022/08/30 09:10:15;;;;;;;0.30;0.30;;;21.90;99.90;;;;;;5082264;28;20070;-80
2022/08/30 09:12:43;;;;;;;0.30;0.30;;;22.00;99.90;;;;;;5068209;28;20051;-80
2022/08/30 09:15:25;;;;;;;0.35;0.35;;;21.80;99.90;;;;;;5051214;28;20048;-82
2022/08/30 09:17:57;;;;;;;0.30;0.30;;;21.90;99.90;;;;;;5066649;28;20042;-79
2022/08/30 09:20:27;;;;;;;0.40;0.40;;;21.90;99.90;;;;;;5083303;28;20549;-80
2022/08/30 09:22:53;;;;;;;0.30;0.30;;;22.20;99.90;;;;;;5064872;28;20546;-79
2022/08/30 09:25:29;;;;;;;0.30;0.30;;;22.40;99.90;;;;;;5065484;28;20411;-79
2022/08/30 09:28:12;;;;;;;0.30;0.30;;;22.40;99.90;;;;;;5064178;28;20101;-79
2022/08/30 09:30:39;;;;;;;0.30;0.30;;;22.30;99.90;;;;;;5064305;28;20063;-79
2022/08/30 09:33:17;;;;;;;0.30;0.30;;;22.50;99.90;;;;;;5084149;28;20327;-80
2022/08/30 09:35:49;;;;;;;0.30;0.30;;;22.40;99.90;;;;;;5067872;28;20083;-79
2022/08/30 09:38:20;;;;;;;0.30;0.30;;;22.40;99.90;;;;;;5065664;28;20526;-78
2022/08/30 09:40:51;;;;;;;0.30;0.30;;;22.20;99.90;;;;;;5062273;28;20437;-78
2022/08/30 09:43:17;;;;;;;0.30;0.30;;;22.20;99.90;;;;;;5066972;28;20051;-80
2022/08/30 09:45:46;;;;;;;0.30;0.30;;;22.60;99.90;;;;;;5065363;28;20057;-81
2022/08/30 09:48:39;;;;;;;0.30;0.30;;;22.70;99.90;;;;;;5063922;28;20039;-80
2022/08/30 09:51:11;;;;;;;0.30;0.30;;;23.20;99.90;;;;;;5044263;28;20047;-80
2022/08/30 09:53:56;;;;;;;0.30;0.30;;;23.60;99.90;;;;;;5064109;28;20742;-81
2022/08/30 09:56:36;;;;;;;0.30;0.30;;;23.40;99.90;;;;;;5081381;28;20086;-80
2022/08/30 09:59:23;;;;;;;0.30;0.30;;;23.20;99.90;;;;;;5080866;28;20423;-79
2022/08/30 10:01:59;;;;;;;0.30;0.30;;;23.20;99.90;;;;;;5052183;28;20047;-79
2022/08/30 10:04:53;;;;;;;0.30;0.30;;;23.20;99.90;;;;;;5063954;28;20754;-78
2022/08/30 10:07:51;;;;;;;0.30;0.30;;;23.60;99.90;;;;;;5081605;28;20039;-81
2022/08/30 10:10:48;;;;;;;0.30;0.30;;;23.30;99.90;;;;;;5080780;28;20047;-80
2022/08/30 10:13:25;;;;;;;0.30;0.30;;;23.30;99.90;;;;;;5063490;28;20399;-80
2022/08/30 10:16:14;;;;;;;0.30;0.30;;;22.80;99.90;;;;;;5062685;28;20085;-81
2022/08/30 10:19:08;;;;;;;0.30;0.30;;;23.10;99.90;;;;;;5064951;28;20055;-79
2022/08/30 10:21:44;;;;;;;0.30;0.30;;;23.30;99.90;;;;;;5066798;28;20678;-81
2022/08/30 10:24:18;;;;;;;0.30;0.30;;;23.40;99.90;;;;;;5064889;28;20043;-80
2022/08/30 10:26:53;;;;;;;0.30;0.30;;;23.10;99.90;;;;;;5046931;28;20054;-79
2022/08/30 10:29:28;;;;;;;0.30;0.30;;;23.20;99.90;;;;;;5063539;28;20051;-80
2022/08/30 10:32:01;;;;;;;0.30;0.30;;;23.10;99.90;;;;;;5063715;28;20076;-82
2022/08/30 10:34:49;;;;;;;0.30;0.30;;;23.30;99.90;;;;;;5046574;28;20056;-80
2022/08/30 10:37:26;;;;;;;0.30;0.30;;;23.20;99.90;;;;;;5084738;28;20110;-82
2022/08/30 10:43:08;;;;;;;0.30;0.30;;;23.50;99.90;;;;;;5062919;28;20045;-81
2022/08/30 10:45:39;;;;;;;0.30;0.30;;;23.60;99.90;;;;;;5062386;28;20043;-82
2022/08/30 10:48:15;;;;;;;0.30;0.30;;;23.90;99.90;;;;;;5066810;28;20108;-79
2022/08/30 10:50:47;;;;;;;0.30;0.30;;;24.10;99.90;;;;;;5085985;28;20545;-80
2022/08/30 10:53:21;;;;;;;0.30;0.30;;;24.30;99.90;;;;;;5083099;28;20047;-81
2022/08/30 10:56:01;;;;;;;;;;;24.00;99.90;;;;;;5065620;28;20968;-80
2022/08/30 10:58:30;;;;;;;0.30;0.30;;;24.00;99.90;;;;;;5046905;28;19932;-80
2022/08/30 11:01:40;;;;;;;0.30;0.30;;;24.10;99.50;;;;;;5065522;28;20109;-79
2022/08/30 11:04:53;;;;;;;0.30;0.30;;;23.30;98.20;;;;;;5063348;28;20067;-78
2022/08/30 11:07:37;;;;;;;0.30;0.30;;;24.20;99.90;;;;;;5038174;28;21061;-82
2022/08/30 11:10:10;;;;;;;;;;;24.40;99.00;;;;;;5070198;28;20048;-80
2022/08/30 11:12:47;;;;;;;0.30;0.30;;;24.40;99.90;;;;;;5063837;28;19919;-81
2022/08/30 11:15:18;;;;;;;0.32;0.32;;;24.60;99.90;;;;;;5064092;28;20083;-83
2022/08/30 11:18:00;;;;;;;0.30;0.30;;;24.50;99.40;;;;;;5064136;28;20356;-79
2022/08/30 11:20:45;;;;;;;0.30;0.30;;;24.10;99.70;;;;;;5079266;28;20399;-80
2022/08/30 11:23:17;;;;;;;0.30;0.30;;;24.00;99.90;;;;;;5064126;28;20074;-81
2022/08/30 11:26:06;;;;;;;0.30;0.30;;;23.50;99.90;;;;;;5065809;28;20057;-80
2022/08/30 11:28:35;;;;;;;0.30;0.30;;;24.20;99.90;;;;;;5066084;28;20040;-81
2022/08/30 11:31:06;;;;;;;0.30;0.30;;;23.80;98.90;;;;;;5062861;28;20050;-82
2022/08/30 11:33:45;;;;;;;0.30;0.30;;;23.70;99.90;;;;;;5063522;28;20062;-81
2022/08/30 11:36:31;;;;;;;0.30;0.30;;;23.70;99.90;;;;;;5066403;28;20052;-84
2022/08/30 11:39:03;;;;;;;0.30;0.30;;;23.70;98.80;;;;;;5046099;28;20048;-81
2022/08/30 11:41:43;;;;;;;0.30;0.30;;;24.30;99.90;;;;;;5064893;28;20563;-79
2022/08/30 11:44:26;;;;;;;0.30;0.30;;;24.20;99.30;;;;;;5063287;28;20051;-81
2022/08/30 11:47:00;;;;;;;0.30;0.30;;;24.30;99.80;;;;;;5064022;28;20108;-81
2022/08/30 11:49:36;;;;;;;0.30;0.30;;;23.50;99.00;;;;;;5064581;28;20075;-83
2022/08/30 11:52:34;;;;;;;0.30;0.30;;;24.10;99.90;;;;;;5052425;28;20055;-81
2022/08/30 11:55:15;;;;;;;0.30;0.30;;;24.80;99.90;;;;;;5063422;28;20060;-79
2022/08/30 11:58:38;;;;;;;0.30;0.30;;;25.00;99.90;;;;;;5068949;28;20052;-81
2022/08/30 12:01:18;;;;;;;0.40;0.40;;;24.90;99.90;;;;;;5027844;28;20755;-80
2022/08/30 12:03:52;;;;;;;0.30;0.30;;;25.40;99.90;;;;;;5009021;28;20052;-79
2022/08/30 12:06:40;;;;;;;0.30;0.30;;;25.40;99.20;;;;;;5054189;28;20063;-80
2022/08/30 12:09:08;;;;;;;0.30;0.30;;;24.80;99.60;;;;;;5070195;28;20150;-81
2022/08/30 12:11:34;;;;;;;0.30;0.30;;;23.40;99.00;;;;;;5065609;28;20047;-83
2022/08/30 12:14:03;;;;;;;0.30;0.30;;;23.50;99.90;;;;;;5066415;28;20052;-83
2022/08/30 12:19:31;;;;;;;0.30;0.30;;;24.30;99.90;;;;;;5086086;28;20060;-80
2022/08/30 12:22:04;;;;;;;0.30;0.30;;;23.80;98.90;;;;;;5067887;28;20048;-83
2022/08/30 12:24:42;;;;;;;0.30;0.30;;;23.50;99.40;;;;;;5066373;28;20040;-81
2022/08/30 12:27:40;;;;;;;0.30;0.30;;;23.30;99.50;;;;;;5084479;28;20855;-81
2022/08/30 12:30:08;;;;;;;0.30;0.30;;;24.20;99.70;;;;;;5027640;28;20050;-81
2022/08/30 12:32:43;;;;;;;0.40;0.40;;;24.60;99.50;;;;;;5066268;28;20492;-81
2022/08/30 12:35:19;;;;;;;0.30;0.30;;;24.80;99.90;;;;;;5064924;28;20047;-81
2022/08/30 12:37:58;;;;;;;0.30;0.30;;;24.50;99.90;;;;;;5064849;28;20056;-81
2022/08/30 12:40:25;;;;;;;0.30;0.30;;;24.00;99.10;;;;;;5065376;28;20044;-81
2022/08/30 12:42:54;;;;;;;0.30;0.30;;;24.50;99.80;;;;;;5069326;28;20056;-81
2022/08/30 12:45:24;;;;;;;0.30;0.30;;;23.90;99.90;;;;;;5083201;28;20867;-82
2022/08/30 12:47:52;;;;;;;0.30;0.30;;;24.30;99.30;;;;;;5084757;28;20710;-81
2022/08/30 12:50:31;;;;;;;1.30;0.45;;;24.50;99.10;;;;;;5066451;28;20042;-80
2022/08/30 12:53:07;;;;;;;0.30;0.30;;;24.80;99.60;;;;;;5064822;28;20051;-82
2022/08/30 12:55:47;;;;;;;0.30;0.30;;;24.90;98.60;;;;;;5067499;28;20056;-82
2022/08/30 12:58:14;;;;;;;0.30;0.30;;;24.70;98.00;;;;;;5067008;28;20047;-81
2022/08/30 13:00:46;;;;;;;0.30;0.30;;;24.90;99.60;;;;;;5067538;28;20428;-79
2022/08/30 13:03:38;;;;;;;0.30;0.30;;;25.60;99.70;;;;;;5067091;28;20048;-81
2022/08/30 13:06:08;;;;;;;0.30;0.30;;;24.80;98.00;;;;;;5066956;28;20047;-83
2022/08/30 13:08:53;;;;;;;0.30;0.30;;;24.90;99.60;;;;;;5068139;28;20044;-80
2022/08/30 13:11:23;;;;;;;0.30;0.30;;;24.10;99.70;;;;;;5067540;28;20048;-81
2022/08/30 13:13:57;;;;;;;0.30;0.30;;;24.30;99.90;;;;;;5067997;28;20104;-81